Historyczne dane pomiarowe

Dodano dane terminowe – wersja testowa.

Dane z okresu 1951-2018

Wersja bazy: 1.27 [2018-11-28, lista zmian], aktualizacja planowana na 2018-12-07

Dane meteo z obszaru Polski uzyskane na podstawie danych udostępnionych przez Instytut Meteorologii i Gospodarki Wodnej – Państwowy Instytut Badawczy.

 

Wybierz Datę:    

       

TemperaturaWilgotnośćWiatrCiśnienieOpadyŚniegCzas trwania zjawisk
 Stacja t tx tn tng RH VA  wxwx mslp ppp RRR   cm mm wxwxwxwxwxwxwx
1978-11-08 2.7 6.4 0.5- 93.8- 5.0 1.3---- 0.0------------
1978-11-09 2.0 5.8 0.3- 93.8- 5.7 0.3---- 0.0------------
1978-11-10 -0.1 2.7 -1.4- 98.5- 7.3 0.0---- 0.0------------
1978-11-11 -0.1 5.7 -2.3- 90.5- 3.0 0.3---- 0.0------------
1978-11-12 -0.8 5.2 -3.9- 89.5- 2.7 0.3---- 0.0------------
1978-11-13 -1.4 6.0 -4.2- 87.3- 2.7 0.0---- 0.0------------
1978-11-14 -1.6 7.7 -6.4- 90.5- 2.0 0.0---- 0.0------------
1978-11-15 3.7 8.2 -1.9- 87.3- 3.7 1.0---- 0.0------------
1978-11-16 4.2 9.7 -0.4- 71.3- 2.7 2.7---- 0.4------------
1978-11-17 1.7 4.9 -1.4- 83.0- 0.3 1.7---- 0.0------------
1978-11-18 3.2 6.1 -0.4- 86.8- 4.7 3.0---- 0.0------------
1978-11-19 3.3 9.2 -0.4- 66.0- 2.3 2.0---- 0.0------------
1978-11-20 2.5 9.2 -1.9- 65.0- 2.7 2.7---- 0.0------------
1978-11-21 2.6 7.4 -0.9- 84.0- 5.7 0.7---- 0.0------------
1978-11-22 2.6 6.4 -1.1- 85.8- 4.7 3.7---- 0.0------------
1978-11-23 4.6 6.0 3.4- 87.5- 8.0 5.0---- 0.0------------
1978-11-24 4.9 5.8 3.8- 83.3- 8.0 2.3---- 0.0------------
1978-11-25 2.6 8.9 -2.4- 82.8- 0.0 0.3---- 0.0------------
1978-11-26 -0.7 2.2 -3.1- 97.8- 6.7 0.7---- 0.0------------
1978-11-27 -1.4 0.8 -3.3- 96.5- 8.0 1.0---- 4.7------------
1978-11-28 -2.5 -1.2 -3.0- 97.3- 8.0 0.7---- 1.6-- 8---------
1978-11-29 -2.2 -1.6 -2.9- 96.0- 8.0 2.7---- 6.2------------
1978-11-30 -1.7 -0.3 -3.5- 96.8- 8.0 0.3---- 4.8-- 17---------
1978-12-01 -0.7 0.6 -1.7- 94.8- 8.0 1.0---- 1.3-- 20---------
1978-12-02 -0.4 0.2 -1.1- 95.0- 8.0 0.7---- 0.3-- 18---------
1978-12-03 -2.7 -0.6 -4.6- 92.0- 8.0 2.0---- 0.2-- 15---------
1978-12-04-12.2 -4.4-19.4- 87.3- 0.0 1.0---- 0.0-- 15---------
1978-12-05-17.7 -9.9-25.5- 79.5- 4.7 0.0---- 0.4-- 13---------
1978-12-06-12.3 -7.4-20.1- 81.3- 5.0 0.7---- 0.0-- 13---------
1978-12-07-17.7-14.1-23.2- 83.8- 5.7 0.0---- 0.0-- 13---------
181.5 ms

 

Źródłem pochodzenia danych jest Instytut Meteorologii i Gospodarki Wodnej – Państwowy Instytut Badawczy. Dane Instytutu Meteorologii i Gospodarki Wodnej – Państwowego Instytutu Badawczego zostały przetworzone.

Dane źródłowe można odnaleźć na stronie https://dane.imgw.pl